Terminal Aerodrome Forecast
Issued by NWS Detroit/Pontiac, MI

Home | Current Version | Previous Version | Text Only | Print | Product List | Glossary On
Versions: 1 2 3 4 5 6 7 8 9 10 11 12 13 14 15 16 17
000
FTUS43 KDTX 161700
TAFFNT
TAF
KFNT 161728Z 1618/1718 23007KT P6SM FEW040
     FM162100 28006KT P6SM SCT050
     FM170100 27003KT P6SM SKC
     FM171500 26008KT P6SM SCT040=

USA.gov is the U.S. government's official web portal to all federal, state and local government web resources and services.